Skip Navigation LinksHome page > Weather > Current weather Skip Navigation Links

Current Weather

New Bedford Regional, New Bedford, Mass.

For information only: do not use for flight planning or navigation.
Latest weather
Observation time Friday, February 21, 2020 3:53 AM EST
Local time Friday, February 21, 2020 4:20 AM EST
Flight conditions Visual Meteorological Conditions
Winds
Wind direction North (360°)
Winds variable from 300° to 30°
Wind speed 8 mph
Visibility 10 mi.
Sky condition
Ceiling unlimited
Sky clear
Temperature 18°F
Dewpoint 3°F
Altimeter 30.41 in.Hg
Pressure change last 3 hours-0.01 in.Hg
Pressure rising more quickly
Derived measurements
Relative humidity 51%
Wind chill 8°F
Density altitude -3289 ft.
Sea-level pressure 30.41 in.Hg
Remarks
Fully automated report.
Automated weather observing station with precipitation discriminator.
METAR KEWB 210853Z AUTO 36007KT 300V030 10SM CLR M08/M16 A3041 RMK AO2 SLP299 T10781161 53003

Settings

Location code

InnerDrive.Weather 4.0.6770.0 Release CLR 4.0.30319.42000
Copyright ©2018 Inner Drive Technology. All rights reserved. Portions Copyright ©1986-2018 David Braverman.

Find weather

Site navigation


Skip Navigation Links

Place info

Page info

PayPal - The safer, easier way to pay online!

Return home.

Copyright ©2020 Inner Drive Technology. Purveyors of fine, hand-crafted computer software. Page printed 2020-02-21T09:20:43 UTC.